Time;durP1;ratioP1;P1;durP2;ratioP2;P2;SDS_P1;SDS_P2;PMS_P1;PMS_P2;Temp;Humidity;BMP_temperature;BMP_pressure;BME280_temperature;BME280_humidity;BME280_pressure;Samples;Min_cycle;Max_cycle;Signal;HPM_P1;HPM_P2
2023/10/01 00:01:46;;;;;;;;;;;25.30;73.10;;;;;;5121255;28;19907;-48
2023/10/01 00:04:12;;;;;;;;;;;25.30;73.10;;;;;;5122898;28;19935;-48
2023/10/01 00:06:38;;;;;;;;;;;25.30;73.10;;;;;;5125761;27;19914;-49
2023/10/01 00:09:05;;;;;;;;;;;25.30;73.10;;;;;;5125780;28;19911;-48
2023/10/01 00:11:32;;;;;;;;;;;25.30;73.00;;;;;;5126312;28;19908;-48
2023/10/01 00:13:59;;;;;;;;;;;25.30;73.10;;;;;;5126083;28;19978;-48
2023/10/01 00:16:25;;;;;;;;;;;25.30;73.10;;;;;;5127552;27;19916;-48
2023/10/01 00:18:51;;;;;;;;;;;25.30;73.20;;;;;;5124674;28;19907;-49
2023/10/01 00:21:17;;;;;;;;;;;25.30;73.10;;;;;;5102313;28;20396;-51
2023/10/01 00:23:43;;;;;;;;;;;25.30;73.20;;;;;;5116584;27;19908;-49
2023/10/01 00:26:12;;;;;;;;;;;25.30;73.20;;;;;;5118132;27;19983;-49
2023/10/01 00:28:38;;;;;;;;;;;25.30;73.10;;;;;;5121367;28;19907;-53
2023/10/01 00:31:04;;;;;;;;;;;25.30;73.00;;;;;;5114704;28;19908;-50
2023/10/01 00:33:30;;;;;;;;;;;25.30;73.00;;;;;;5124956;28;19908;-49
2023/10/01 00:35:55;;;;;;;;;;;25.30;73.00;;;;;;5122766;27;19915;-47
2023/10/01 00:38:21;;;;;;;;;;;25.20;72.80;;;;;;5107093;28;19926;-49
2023/10/01 00:40:49;;;;;;;;;;;25.20;72.80;;;;;;5124425;27;19915;-49
2023/10/01 00:43:14;;;;;;;;;;;25.30;72.90;;;;;;5124184;28;19912;-49
2023/10/01 00:45:41;;;;;;;;;;;25.30;72.90;;;;;;5124653;27;19907;-50
2023/10/01 00:48:11;;;;;;;;;;;25.20;72.80;;;;;;5125551;28;19974;-49
2023/10/01 00:50:37;;;;;;;;;;;25.20;72.80;;;;;;5125497;28;19908;-52
2023/10/01 00:53:03;;;;;;;;;;;25.20;72.80;;;;;;5125929;28;19961;-48
2023/10/01 00:55:29;;;;;;;;;;;25.20;72.70;;;;;;5140836;27;19935;-50
2023/10/01 00:57:56;;;;;;;;;;;25.20;72.80;;;;;;5124827;28;19931;-49
2023/10/01 01:00:42;;;;;;;;;;;25.20;72.90;;;;;;5061112;28;19913;-53
2023/10/01 01:03:09;;;;;;;;;;;25.20;72.90;;;;;;5048728;28;19955;-49
2023/10/01 01:05:36;;;;;;;;;;;25.20;72.80;;;;;;5061604;28;19919;-48
2023/10/01 01:08:10;;;;;;;;;;;25.20;72.80;;;;;;5060807;28;19913;-50
2023/10/01 01:10:39;;;;;;;;;;;25.20;72.80;;;;;;5064223;28;19917;-53
2023/10/01 01:13:06;;;;;;;;;;;25.20;72.70;;;;;;5044718;28;19963;-48
2023/10/01 01:15:34;;;;;;;;;;;25.20;72.60;;;;;;5060717;28;19920;-53
2023/10/01 01:18:01;;;;;;;;;;;25.20;72.60;;;;;;5060679;28;19931;-48
2023/10/01 01:20:36;;;;;;;;;;;25.20;72.50;;;;;;5061527;28;19913;-49
2023/10/01 01:23:05;;;;;;;;;;;25.20;72.40;;;;;;5060767;28;19913;-49
2023/10/01 01:25:32;;;;;;;;;;;25.20;72.30;;;;;;5054659;28;19913;-53
2023/10/01 01:27:58;;;;;;;;;;;25.10;72.20;;;;;;5066647;28;19917;-51
2023/10/01 01:30:26;;;;;;;;;;;25.10;72.30;;;;;;5060952;28;20419;-49
2023/10/01 01:32:57;;;;;;;;;;;25.10;72.30;;;;;;5060866;28;19920;-52
2023/10/01 01:35:28;;;;;;;;;;;25.10;72.30;;;;;;5061058;28;19916;-49
2023/10/01 01:37:58;;;;;;;;;;;25.10;72.40;;;;;;5098141;27;19919;-48
2023/10/01 01:40:26;;;;;;;;;;;25.10;72.40;;;;;;5124426;28;19919;-49
2023/10/01 01:42:56;;;;;;;;;;;25.00;72.30;;;;;;5104273;28;19911;-48
2023/10/01 01:45:26;;;;;;;;;;;25.10;72.40;;;;;;5127562;27;19912;-49
2023/10/01 01:47:51;;;;;;;;;;;25.10;72.50;;;;;;5123849;28;19911;-49
2023/10/01 01:50:19;;;;;;;;;;;25.00;72.40;;;;;;5123905;28;19918;-48
2023/10/01 01:52:47;;;;;;;;;;;25.00;72.30;;;;;;5123418;28;19931;-49
2023/10/01 01:55:23;;;;;;;;;;;25.00;72.20;;;;;;5124208;27;19915;-51
2023/10/01 01:58:02;;;;;;;;;;;25.00;72.00;;;;;;5123029;28;19916;-49
2023/10/01 02:00:31;;;;;;;;;;;25.00;71.90;;;;;;5123966;28;19907;-48
2023/10/01 02:03:02;;;;;;;;;;;25.00;71.70;;;;;;5123380;28;20584;-49
2023/10/01 02:05:29;;;;;;;;;;;25.00;71.70;;;;;;5123593;28;19912;-49
2023/10/01 02:07:55;;;;;;;;;;;25.00;71.70;;;;;;5120746;28;19946;-48
2023/10/01 02:10:21;;;;;;;;;;;25.00;71.70;;;;;;5117927;27;19912;-49
2023/10/01 02:12:50;;;;;;;;;;;25.00;71.60;;;;;;5122666;27;19956;-49
2023/10/01 02:15:18;;;;;;;;;;;25.00;71.60;;;;;;5116503;28;19947;-53
2023/10/01 02:17:44;;;;;;;;;;;24.90;71.60;;;;;;5116365;28;20300;-52
2023/10/01 02:20:16;;;;;;;;;;;24.90;71.50;;;;;;5112971;28;19912;-50
2023/10/01 02:22:43;;;;;;;;;;;24.90;71.50;;;;;;5120752;27;19918;-48
2023/10/01 02:25:10;;;;;;;;;;;24.90;71.50;;;;;;5123139;28;19945;-48
2023/10/01 02:27:47;;;;;;;;;;;24.90;71.60;;;;;;5122764;28;19937;-48
2023/10/01 02:30:16;;;;;;;;;;;24.90;71.60;;;;;;5116249;28;19914;-49
2023/10/01 02:33:15;;;;;;;;;;;24.90;71.70;;;;;;5121349;27;19912;-48
2023/10/01 02:35:40;;;;;;;;;;;24.90;71.60;;;;;;5119367;28;19935;-50
2023/10/01 02:38:07;;;;;;;;;;;24.80;71.50;;;;;;5122770;27;19983;-49
2023/10/01 02:40:37;;;;;;;;;;;24.80;71.40;;;;;;5123073;28;19915;-52
2023/10/01 02:43:09;;;;;;;;;;;24.80;71.30;;;;;;5123775;27;19911;-52
2023/10/01 02:45:41;;;;;;;;;;;24.80;71.40;;;;;;5122559;28;19912;-49
2023/10/01 02:48:13;;;;;;;;;;;24.80;71.30;;;;;;5122862;28;19979;-50
2023/10/01 02:50:39;;;;;;;;;;;24.80;71.30;;;;;;5122522;28;20360;-52
2023/10/01 02:53:05;;;;;;;;;;;24.80;71.30;;;;;;5120083;28;19916;-49
2023/10/01 02:55:31;;;;;;;;;;;24.80;71.30;;;;;;5118488;28;20085;-52
2023/10/01 02:58:03;;;;;;;;;;;24.70;71.30;;;;;;5122116;28;19923;-48
2023/10/01 03:00:32;;;;;;;;;;;24.80;71.30;;;;;;5121888;28;19942;-48
2023/10/01 03:02:59;;;;;;;;;;;24.70;71.40;;;;;;5121536;28;19961;-49
2023/10/01 03:05:36;;;;;;;;;;;24.70;71.30;;;;;;5121811;28;20006;-50
2023/10/01 03:08:40;;;;;;;;;;;24.70;71.40;;;;;;5121950;28;19912;-50
2023/10/01 03:10:48;;;;;;;;;;;24.70;71.40;;;;;;5121002;28;19912;-50
2023/10/01 03:13:18;;;;;;;;;;;24.70;71.40;;;;;;5097678;28;19997;-48
2023/10/01 03:16:39;;;;;;;;;;;24.70;71.40;;;;;;5121600;28;20673;-49
2023/10/01 03:26:04;;;;;;;;;;;24.60;71.20;;;;;;5122326;28;20452;-50
2023/10/01 03:31:24;;;;;;;;;;;24.60;71.20;;;;;;5117606;28;19918;-52
2023/10/01 03:33:58;;;;;;;;;;;24.60;71.30;;;;;;5121882;28;19911;-48
2023/10/01 03:36:32;;;;;;;;;;;24.60;71.40;;;;;;5103970;28;19911;-48
2023/10/01 03:39:08;;;;;;;;;;;24.60;71.30;;;;;;5122525;28;19916;-48
2023/10/01 03:42:00;;;;;;;;;;;24.60;71.30;;;;;;5125787;27;19919;-49
2023/10/01 03:45:18;;;;;;;;;;;24.50;71.30;;;;;;5118461;27;19961;-48
2023/10/01 03:47:29;;;;;;;;;;;24.50;71.30;;;;;;5117606;28;19937;-49
2023/10/01 03:49:58;;;;;;;;;;;24.50;71.30;;;;;;5126586;28;19911;-49
2023/10/01 03:52:29;;;;;;;;;;;24.50;71.40;;;;;;5126671;27;19918;-48
2023/10/01 03:57:30;;;;;;;;;;;24.50;71.40;;;;;;5126442;28;19919;-49
2023/10/01 03:59:57;;;;;;;;;;;24.50;71.30;;;;;;5125477;27;19983;-48
2023/10/01 04:02:46;;;;;;;;;;;24.40;71.30;;;;;;5126611;28;19967;-50
2023/10/01 04:05:22;;;;;;;;;;;24.40;71.30;;;;;;5117867;28;19935;-49
2023/10/01 04:07:48;;;;;;;;;;;24.40;72.00;;;;;;5125740;27;19918;-49
2023/10/01 04:10:19;;;;;;;;;;;24.40;71.30;;;;;;5125940;28;19969;-48
2023/10/01 04:12:49;;;;;;;;;;;24.40;71.40;;;;;;5125326;28;19918;-49
2023/10/01 04:15:27;;;;;;;;;;;24.40;71.50;;;;;;5126082;28;19986;-47
2023/10/01 04:18:09;;;;;;;;;;;24.30;72.10;;;;;;5129387;27;20009;-50
2023/10/01 04:20:36;;;;;;;;;;;24.30;71.50;;;;;;5123981;27;19923;-49
2023/10/01 04:23:04;;;;;;;;;;;24.30;71.50;;;;;;5111507;28;19911;-49
2023/10/01 04:25:38;;;;;;;;;;;24.30;71.50;;;;;;5125619;28;19907;-49
2023/10/01 04:28:08;;;;;;;;;;;24.30;71.60;;;;;;5126020;27;19915;-49
2023/10/01 04:30:37;;;;;;;;;;;24.30;71.60;;;;;;5125987;27;19909;-50
2023/10/01 04:33:24;;;;;;;;;;;24.30;71.50;;;;;;5124225;27;19927;-49
2023/10/01 04:35:52;;;;;;;;;;;24.30;71.50;;;;;;5122589;28;19915;-49
2023/10/01 04:38:22;;;;;;;;;;;24.30;71.40;;;;;;5125416;28;19919;-49
2023/10/01 04:40:51;;;;;;;;;;;24.20;71.50;;;;;;5106458;28;19942;-49
2023/10/01 04:43:19;;;;;;;;;;;24.20;71.50;;;;;;5125299;27;19912;-49
2023/10/01 04:45:45;;;;;;;;;;;24.20;71.50;;;;;;5125201;28;19955;-49
2023/10/01 04:48:22;;;;;;;;;;;24.20;71.50;;;;;;5125224;28;19908;-49
2023/10/01 04:50:49;;;;;;;;;;;24.20;71.50;;;;;;5124400;28;20459;-52
2023/10/01 04:53:19;;;;;;;;;;;24.20;71.50;;;;;;5125887;28;19914;-50
2023/10/01 04:55:57;;;;;;;;;;;24.20;71.50;;;;;;5124874;28;19937;-48
2023/10/01 04:58:23;;;;;;;;;;;24.10;71.50;;;;;;5139412;27;20002;-48
2023/10/01 05:00:51;;;;;;;;;;;24.10;71.50;;;;;;5124982;28;19924;-50
2023/10/01 05:03:17;;;;;;;;;;;24.10;71.50;;;;;;5125478;28;19935;-48
2023/10/01 05:05:43;;;;;;;;;;;24.10;71.50;;;;;;5124852;28;19947;-48
2023/10/01 05:08:18;;;;;;;;;;;24.10;71.60;;;;;;5125508;28;19907;-50
2023/10/01 05:10:52;;;;;;;;;;;24.10;71.60;;;;;;5124604;28;19911;-47
2023/10/01 05:13:22;;;;;;;;;;;24.10;71.60;;;;;;5106783;28;19975;-48
2023/10/01 05:15:57;;;;;;;;;;;24.10;71.70;;;;;;5124167;28;19911;-49
2023/10/01 05:18:26;;;;;;;;;;;24.10;71.70;;;;;;5090668;28;19926;-50
2023/10/01 05:21:04;;;;;;;;;;;24.00;71.60;;;;;;5124901;28;19951;-49
2023/10/01 05:23:30;;;;;;;;;;;24.00;71.60;;;;;;5124906;28;20272;-50
2023/10/01 05:25:56;;;;;;;;;;;24.00;71.60;;;;;;5123972;28;20007;-49
2023/10/01 05:28:31;;;;;;;;;;;24.00;71.60;;;;;;5124729;28;19919;-49
2023/10/01 05:31:06;;;;;;;;;;;24.00;71.70;;;;;;5124269;28;19918;-48
2023/10/01 05:33:35;;;;;;;;;;;24.00;71.60;;;;;;5124372;28;19911;-48
2023/10/01 05:36:06;;;;;;;;;;;24.00;71.60;;;;;;5123654;28;19908;-50
2023/10/01 05:38:34;;;;;;;;;;;24.00;71.70;;;;;;5106714;28;19993;-49
2023/10/01 05:41:15;;;;;;;;;;;24.00;71.70;;;;;;5121617;28;19915;-48
2023/10/01 05:43:50;;;;;;;;;;;23.90;71.50;;;;;;5114046;28;19911;-48
2023/10/01 05:46:17;;;;;;;;;;;23.90;71.70;;;;;;5113325;28;19914;-47
2023/10/01 05:48:43;;;;;;;;;;;23.90;71.70;;;;;;5120849;28;19919;-47
2023/10/01 05:51:15;;;;;;;;;;;23.90;71.80;;;;;;5117084;28;19908;-47
2023/10/01 05:53:41;;;;;;;;;;;23.90;71.70;;;;;;5117339;28;20439;-47
2023/10/01 05:56:07;;;;;;;;;;;23.90;71.70;;;;;;5114629;28;19912;-49
2023/10/01 05:58:34;;;;;;;;;;;23.80;71.80;;;;;;5116895;28;19980;-47
2023/10/01 06:01:05;;;;;;;;;;;23.80;71.70;;;;;;5123167;28;19915;-48
2023/10/01 06:03:32;;;;;;;;;;;23.80;71.80;;;;;;5116351;28;19911;-48
2023/10/01 06:05:58;;;;;;;;;;;23.80;71.80;;;;;;5123362;28;19916;-51
2023/10/01 06:08:32;;;;;;;;;;;23.80;71.80;;;;;;5123551;28;19911;-48
2023/10/01 06:11:05;;;;;;;;;;;23.80;71.80;;;;;;5121685;28;19926;-48
2023/10/01 06:13:31;;;;;;;;;;;23.80;71.90;;;;;;5118644;28;20581;-48
2023/10/01 06:15:58;;;;;;;;;;;23.80;71.90;;;;;;5123881;27;19918;-48
2023/10/01 06:18:24;;;;;;;;;;;23.80;72.00;;;;;;5121809;27;19931;-48
2023/10/01 06:20:53;;;;;;;;;;;23.70;71.90;;;;;;5115352;28;19918;-48
2023/10/01 06:23:23;;;;;;;;;;;23.70;71.80;;;;;;5112781;28;19912;-48
2023/10/01 06:25:53;;;;;;;;;;;23.70;72.00;;;;;;5113707;28;19919;-50
2023/10/01 06:28:23;;;;;;;;;;;23.70;71.90;;;;;;5122334;28;19933;-49
2023/10/01 06:30:49;;;;;;;;;;;23.70;72.00;;;;;;5123034;28;20213;-49
2023/10/01 06:33:29;;;;;;;;;;;23.70;72.00;;;;;;5112991;28;19944;-48
2023/10/01 06:38:39;;;;;;;;;;;23.70;72.00;;;;;;5122479;28;19938;-48
2023/10/01 06:41:06;;;;;;;;;;;23.70;72.00;;;;;;5120557;28;19912;-48
2023/10/01 06:43:32;;;;;;;;;;;23.60;72.10;;;;;;5122374;28;19970;-48
2023/10/01 06:46:03;;;;;;;;;;;23.60;72.00;;;;;;5115086;28;19974;-48
2023/10/01 06:48:29;;;;;;;;;;;23.60;72.00;;;;;;5122043;28;19946;-48
2023/10/01 06:50:54;;;;;;;;;;;23.60;72.00;;;;;;5121934;27;19908;-49
2023/10/01 06:53:43;;;;;;;;;;;23.60;72.10;;;;;;5123541;28;19990;-50
2023/10/01 06:56:09;;;;;;;;;;;23.60;72.00;;;;;;5113769;28;19916;-47
2023/10/01 06:58:35;;;;;;;;;;;23.60;72.90;;;;;;5123125;28;20356;-48
2023/10/01 07:01:02;;;;;;;;;;;23.60;72.10;;;;;;5115438;28;19963;-49
2023/10/01 07:03:30;;;;;;;;;;;23.50;72.00;;;;;;5122317;28;19912;-49
2023/10/01 07:06:01;;;;;;;;;;;23.50;72.00;;;;;;5121325;28;19938;-48
2023/10/01 07:08:43;;;;;;;;;;;23.50;72.10;;;;;;5117140;28;19919;-47
2023/10/01 07:11:11;;;;;;;;;;;23.50;72.10;;;;;;5122862;28;19907;-48
2023/10/01 07:13:38;;;;;;;;;;;23.50;72.10;;;;;;5122451;28;19911;-48
2023/10/01 07:16:07;;;;;;;;;;;23.50;72.20;;;;;;5122397;28;19934;-49
2023/10/01 07:18:37;;;;;;;;;;;23.50;72.30;;;;;;5122238;28;19943;-47
2023/10/01 07:21:11;;;;;;;;;;;23.50;72.20;;;;;;5122113;28;19911;-48
2023/10/01 07:23:38;;;;;;;;;;;23.40;72.30;;;;;;5122967;28;20356;-48
2023/10/01 07:26:25;;;;;;;;;;;23.40;72.20;;;;;;5122776;28;19908;-49
2023/10/01 07:28:57;;;;;;;;;;;23.40;72.20;;;;;;5039004;28;19984;-47
2023/10/01 07:31:24;;;;;;;;;;;23.40;72.20;;;;;;5039445;28;19952;-48
2023/10/01 07:33:53;;;;;;;;;;;23.40;72.30;;;;;;5039529;28;19913;-48
2023/10/01 07:36:20;;;;;;;;;;;23.40;72.30;;;;;;5039841;28;19916;-48
2023/10/01 07:38:52;;;;;;;;;;;23.30;72.30;;;;;;5039471;28;19924;-48
2023/10/01 07:41:20;;;;;;;;;;;23.40;72.40;;;;;;5038826;28;19912;-47
2023/10/01 07:43:46;;;;;;;;;;;23.30;72.30;;;;;;5039952;28;19932;-48
2023/10/01 07:46:14;;;;;;;;;;;23.30;72.40;;;;;;5039711;28;19920;-48
2023/10/01 07:48:46;;;;;;;;;;;23.30;72.40;;;;;;5036510;28;19944;-48
2023/10/01 07:51:26;;;;;;;;;;;23.30;72.40;;;;;;5036986;28;19920;-47
2023/10/01 07:53:52;;;;;;;;;;;23.30;72.40;;;;;;5039156;28;19940;-47
2023/10/01 07:56:21;;;;;;;;;;;23.30;72.40;;;;;;5039113;28;19919;-48
2023/10/01 07:58:48;;;;;;;;;;;23.30;72.40;;;;;;5039410;28;19920;-48
2023/10/01 08:03:59;;;;;;;;;;;23.30;72.40;;;;;;5038212;28;19924;-47
2023/10/01 08:06:29;;;;;;;;;;;23.20;72.50;;;;;;5097315;28;19961;-48
2023/10/01 08:08:57;;;;;;;;;;;23.20;72.40;;;;;;5122522;28;19915;-47
2023/10/01 08:14:08;;;;;;;;;;;23.20;72.50;;;;;;5114556;28;19918;-47
2023/10/01 08:16:47;;;;;;;;;;;23.20;72.50;;;;;;5122434;28;19979;-47
2023/10/01 08:19:22;;;;;;;;;;;23.20;72.50;;;;;;5116730;28;19912;-47
2023/10/01 08:21:52;;;;;;;;;;;23.20;72.50;;;;;;5117636;28;19969;-47
2023/10/01 08:24:18;;;;;;;;;;;23.20;72.60;;;;;;5103609;28;19915;-48
2023/10/01 08:26:49;;;;;;;;;;;23.20;72.60;;;;;;5123223;28;19947;-47
2023/10/01 08:29:15;;;;;;;;;;;23.10;72.50;;;;;;5123198;28;19907;-48
2023/10/01 08:32:38;;;;;;;;;;;23.10;72.50;;;;;;5125197;28;20024;-47
2023/10/01 08:34:28;;;;;;;;;;;23.10;72.60;;;;;;5104430;27;19914;-47
2023/10/01 08:36:55;;;;;;;;;;;23.10;72.50;;;;;;5110522;28;19924;-48
2023/10/01 08:39:34;;;;;;;;;;;23.10;72.50;;;;;;5125355;28;19962;-47
2023/10/01 08:42:08;;;;;;;;;;;23.10;72.60;;;;;;5119633;27;19937;-48
2023/10/01 08:45:08;;;;;;;;;;;23.10;72.60;;;;;;5130017;27;19911;-47
2023/10/01 08:47:34;;;;;;;;;;;23.10;72.70;;;;;;5121860;28;19907;-47
2023/10/01 08:50:29;;;;;;;;;;;23.10;72.60;;;;;;5097825;28;20010;-47
2023/10/01 08:52:56;;;;;;;;;;;23.10;72.70;;;;;;5119161;28;19911;-48
2023/10/01 08:56:14;;;;;;;;;;;23.00;72.70;;;;;;5126117;28;20030;-49
2023/10/01 08:58:25;;;;;;;;;;;23.00;72.70;;;;;;5103378;28;20394;-48
2023/10/01 09:00:53;;;;;;;;;;;23.00;72.80;;;;;;5123860;27;19949;-48
2023/10/01 09:03:34;;;;;;;;;;;23.00;72.70;;;;;;5121054;28;19908;-49
2023/10/01 09:06:04;;;;;;;;;;;23.00;72.80;;;;;;5117123;28;19916;-47
2023/10/01 09:08:42;;;;;;;;;;;23.00;72.80;;;;;;5126116;27;19951;-49
2023/10/01 09:11:12;;;;;;;;;;;23.00;72.80;;;;;;5121720;28;19979;-47
2023/10/01 09:13:44;;;;;;;;;;;22.90;72.90;;;;;;5124390;27;19911;-47
2023/10/01 09:16:10;;;;;;;;;;;22.90;72.70;;;;;;5124951;28;20006;-46
2023/10/01 09:18:37;;;;;;;;;;;22.90;72.80;;;;;;5124611;28;19924;-48
2023/10/01 09:21:06;;;;;;;;;;;22.90;72.80;;;;;;5125079;28;20007;-47
2023/10/01 09:23:58;;;;;;;;;;;22.90;72.70;;;;;;5124427;28;19982;-47
2023/10/01 09:26:40;;;;;;;;;;;22.90;72.80;;;;;;5119387;28;19911;-47
2023/10/01 09:29:20;;;;;;;;;;;22.90;72.90;;;;;;5124626;28;19937;-47
2023/10/01 09:31:59;;;;;;;;;;;22.90;72.90;;;;;;5124251;28;19915;-48
2023/10/01 09:34:33;;;;;;;;;;;22.90;72.90;;;;;;5125039;28;19971;-47
2023/10/01 09:37:03;;;;;;;;;;;22.80;72.80;;;;;;5121624;28;20003;-49
2023/10/01 09:39:49;;;;;;;;;;;22.80;73.00;;;;;;5119189;28;19918;-47
2023/10/01 09:42:25;;;;;;;;;;;22.80;72.90;;;;;;5116518;28;21089;-47
2023/10/01 09:44:52;;;;;;;;;;;22.80;73.00;;;;;;5122871;28;19918;-47
2023/10/01 09:47:23;;;;;;;;;;;22.80;73.00;;;;;;5124087;28;19911;-47
2023/10/01 09:49:49;;;;;;;;;;;22.80;72.90;;;;;;5121823;28;19909;-48
2023/10/01 09:52:26;;;;;;;;;;;22.80;73.00;;;;;;5122983;28;19956;-47
2023/10/01 09:55:10;;;;;;;;;;;22.80;72.90;;;;;;5123580;28;19956;-47
2023/10/01 09:57:37;;;;;;;;;;;22.80;73.00;;;;;;5123670;28;19930;-47
2023/10/01 10:00:17;;;;;;;;;;;22.80;73.00;;;;;;5123377;28;19912;-47
2023/10/01 10:02:52;;;;;;;;;;;22.80;73.00;;;;;;5123410;28;19953;-49
2023/10/01 10:05:24;;;;;;;;;;;22.70;72.90;;;;;;5117563;28;19911;-48
2023/10/01 10:07:52;;;;;;;;;;;22.70;73.10;;;;;;5122254;28;19930;-48
2023/10/01 10:10:24;;;;;;;;;;;22.70;73.00;;;;;;5119865;27;19979;-47
2023/10/01 10:12:56;;;;;;;;;;;22.70;73.10;;;;;;5121867;27;19911;-47
2023/10/01 10:15:46;;;;;;;;;;;22.70;73.10;;;;;;5124187;28;19983;-47
2023/10/01 10:18:23;;;;;;;;;;;22.70;73.10;;;;;;5115891;27;20403;-47
2023/10/01 10:20:58;;;;;;;;;;;22.70;73.10;;;;;;5122873;28;19971;-47
2023/10/01 10:23:29;;;;;;;;;;;22.70;73.10;;;;;;5123042;27;19918;-47
2023/10/01 10:26:14;;;;;;;;;;;22.70;73.20;;;;;;5122679;28;20716;-48
2023/10/01 10:28:52;;;;;;;;;;;22.70;73.10;;;;;;5126329;27;20013;-48
2023/10/01 10:31:29;;;;;;;;;;;22.60;73.10;;;;;;5117041;28;19938;-47
2023/10/01 10:34:26;;;;;;;;;;;22.60;73.10;;;;;;5137857;27;19919;-47
2023/10/01 10:36:57;;;;;;;;;;;22.60;73.10;;;;;;5107152;28;19926;-47
2023/10/01 10:39:42;;;;;;;;;;;22.60;73.20;;;;;;5123759;28;19918;-47
2023/10/01 10:42:28;;;;;;;;;;;22.60;73.20;;;;;;5114111;28;19908;-48
2023/10/01 10:45:22;;;;;;;;;;;22.60;73.20;;;;;;5122789;28;19916;-47
2023/10/01 10:47:58;;;;;;;;;;;22.60;73.30;;;;;;5114888;27;19958;-47
2023/10/01 10:50:46;;;;;;;;;;;22.60;73.20;;;;;;5137377;27;19911;-48
2023/10/01 10:53:19;;;;;;;;;;;22.60;73.30;;;;;;5116397;28;20005;-48
2023/10/01 10:56:02;;;;;;;;;;;22.60;73.30;;;;;;5123195;28;19918;-48
2023/10/01 10:58:29;;;;;;;;;;;22.60;73.30;;;;;;5118130;28;19951;-49
2023/10/01 11:00:55;;;;;;;;;;;22.50;73.20;;;;;;5122909;28;20440;-48
2023/10/01 11:03:43;;;;;;;;;;;22.50;73.20;;;;;;5123499;28;20337;-47
2023/10/01 11:06:18;;;;;;;;;;;22.60;73.30;;;;;;5122530;28;19918;-47
2023/10/01 11:08:50;;;;;;;;;;;22.50;73.30;;;;;;5122883;28;19912;-47
2023/10/01 11:11:27;;;;;;;;;;;22.50;73.30;;;;;;5116539;28;19912;-47
2023/10/01 11:14:02;;;;;;;;;;;22.50;73.20;;;;;;5122397;28;19908;-47
2023/10/01 11:16:37;;;;;;;;;;;22.50;73.30;;;;;;5123103;28;20472;-47
2023/10/01 11:19:16;;;;;;;;;;;22.50;73.30;;;;;;5112779;28;19915;-49
2023/10/01 11:21:55;;;;;;;;;;;22.50;73.40;;;;;;5119427;28;19916;-47
2023/10/01 11:24:25;;;;;;;;;;;22.50;73.30;;;;;;5123115;28;20424;-47
2023/10/01 11:27:11;;;;;;;;;;;22.50;73.30;;;;;;5122478;28;19912;-47
2023/10/01 11:29:39;;;;;;;;;;;22.40;73.30;;;;;;5123102;28;19923;-47
2023/10/01 11:32:06;;;;;;;;;;;22.40;73.40;;;;;;5122170;28;19911;-47
2023/10/01 11:34:45;;;;;;;;;;;22.50;73.40;;;;;;5122973;28;19911;-47
2023/10/01 11:37:14;;;;;;;;;;;22.50;73.40;;;;;;5122466;28;19911;-47
2023/10/01 11:39:49;;;;;;;;;;;22.40;73.40;;;;;;5122619;28;20002;-47
2023/10/01 11:42:28;;;;;;;;;;;22.40;73.40;;;;;;5122074;28;19911;-46
2023/10/01 11:44:54;;;;;;;;;;;22.40;73.40;;;;;;5121363;28;20361;-47
2023/10/01 11:47:34;;;;;;;;;;;22.40;73.40;;;;;;5116923;28;19915;-47
2023/10/01 11:50:07;;;;;;;;;;;22.40;73.40;;;;;;5122403;28;19924;-47
2023/10/01 11:52:33;;;;;;;;;;;22.40;73.40;;;;;;5122678;28;19951;-47
2023/10/01 11:54:59;;;;;;;;;;;22.40;73.40;;;;;;5121744;28;19979;-48
2023/10/01 11:57:35;;;;;;;;;;;22.40;73.40;;;;;;5122349;28;19955;-47
2023/10/01 12:00:03;;;;;;;;;;;22.40;73.50;;;;;;5121924;28;19919;-48
2023/10/01 12:02:33;;;;;;;;;;;22.40;73.50;;;;;;5142142;27;19980;-49
2023/10/01 12:05:09;;;;;;;;;;;22.40;73.50;;;;;;5126048;28;19973;-47
2023/10/01 12:07:43;;;;;;;;;;;22.30;73.50;;;;;;5123194;28;20404;-47
2023/10/01 12:10:31;;;;;;;;;;;22.30;73.50;;;;;;5125851;27;19911;-48
2023/10/01 12:12:55;;;;;;;;;;;22.30;73.50;;;;;;5126019;28;20016;-47
2023/10/01 12:15:33;;;;;;;;;;;22.30;73.60;;;;;;5126391;28;19937;-47
2023/10/01 12:18:07;;;;;;;;;;;22.30;73.60;;;;;;5125425;28;19924;-48
2023/10/01 12:20:39;;;;;;;;;;;22.30;73.50;;;;;;5121848;28;19912;-47
2023/10/01 12:23:11;;;;;;;;;;;22.30;73.50;;;;;;5126142;28;19911;-48
2023/10/01 12:26:00;;;;;;;;;;;22.30;73.60;;;;;;5126179;28;19933;-47
2023/10/01 12:28:29;;;;;;;;;;;22.30;73.60;;;;;;5104695;28;19912;-47
2023/10/01 12:30:59;;;;;;;;;;;22.30;73.70;;;;;;5124065;28;19907;-48
2023/10/01 12:33:58;;;;;;;;;;;22.30;73.60;;;;;;5117409;28;19912;-48
2023/10/01 12:36:42;;;;;;;;;;;22.30;73.70;;;;;;5118183;28;19912;-47
2023/10/01 12:42:16;;;;;;;;;;;22.30;73.80;;;;;;5126105;28;19908;-47
2023/10/01 12:44:32;;;;;;;;;;;22.30;73.80;;;;;;5113902;28;19933;-47
2023/10/01 12:47:00;;;;;;;;;;;22.30;73.80;;;;;;5122815;28;19912;-47
2023/10/01 12:49:26;;;;;;;;;;;22.30;73.80;;;;;;5125594;28;19916;-47
2023/10/01 12:51:55;;;;;;;;;;;22.30;73.80;;;;;;5125673;27;19911;-48
2023/10/01 12:54:28;;;;;;;;;;;22.20;73.80;;;;;;5125241;28;19934;-47
2023/10/01 12:57:06;;;;;;;;;;;22.30;73.80;;;;;;5123936;28;19920;-48
2023/10/01 12:59:44;;;;;;;;;;;22.30;73.80;;;;;;5125612;28;20007;-48
2023/10/01 13:02:28;;;;;;;;;;;22.20;73.80;;;;;;5124774;28;19950;-49
2023/10/01 13:07:42;;;;;;;;;;;22.20;73.80;;;;;;5124483;28;19933;-49
2023/10/01 13:10:08;;;;;;;;;;;22.20;73.80;;;;;;5124547;28;19911;-48
2023/10/01 13:15:29;;;;;;;;;;;22.20;73.90;;;;;;5117195;28;19915;-47
2023/10/01 13:18:00;;;;;;;;;;;22.20;74.60;;;;;;5124558;27;20469;-49
2023/10/01 13:20:28;;;;;;;;;;;22.20;73.90;;;;;;5124624;27;19912;-50
2023/10/01 13:23:06;;;;;;;;;;;22.20;73.90;;;;;;5122977;28;19915;-47
2023/10/01 13:25:36;;;;;;;;;;;22.20;74.00;;;;;;5107430;28;20019;-48
2023/10/01 13:28:04;;;;;;;;;;;22.20;74.00;;;;;;5123423;27;20125;-48
2023/10/01 13:33:23;;;;;;;;;;;22.20;74.00;;;;;;5119033;28;19919;-48
2023/10/01 13:35:58;;;;;;;;;;;22.20;74.10;;;;;;5116747;28;19951;-49
2023/10/01 14:11:04;;;;;;;;;;;22.20;74.40;;;;;;5099910;28;19930;-47
2023/10/01 14:13:34;;;;;;;;;;;22.20;74.30;;;;;;5105526;28;20376;-50
2023/10/01 14:16:16;;;;;;;;;;;22.20;74.30;;;;;;5123498;28;19916;-49
2023/10/01 14:18:53;;;;;;;;;;;22.20;74.30;;;;;;5122819;28;20467;-48
2023/10/01 14:21:23;;;;;;;;;;;22.20;74.40;;;;;;5109729;28;19921;-49
2023/10/01 14:23:49;;;;;;;;;;;22.20;74.40;;;;;;5122179;28;19912;-48
2023/10/01 14:26:26;;;;;;;;;;;22.20;74.40;;;;;;5123191;28;19956;-48
2023/10/01 14:28:55;;;;;;;;;;;22.20;74.40;;;;;;5123606;28;19979;-48
2023/10/01 14:34:07;;;;;;;;;;;22.20;74.50;;;;;;5123683;28;19918;-47
2023/10/01 14:36:34;;;;;;;;;;;22.20;74.60;;;;;;5121007;28;19911;-47
2023/10/01 14:39:03;;;;;;;;;;;22.20;74.80;;;;;;5122791;28;20015;-50
2023/10/01 14:41:31;;;;;;;;;;;22.20;74.60;;;;;;5093410;28;19912;-48
2023/10/01 14:43:56;;;;;;;;;;;22.20;74.60;;;;;;5122372;28;20400;-49
2023/10/01 14:46:23;;;;;;;;;;;22.20;75.40;;;;;;5103909;28;19912;-47
2023/10/01 14:48:49;;;;;;;;;;;22.30;74.80;;;;;;5122522;28;20257;-48
2023/10/01 14:51:48;;;;;;;;;;;22.20;74.70;;;;;;5118039;28;19919;-48
2023/10/01 14:54:16;;;;;;;;;;;22.30;74.70;;;;;;5119312;28;19966;-47
2023/10/01 14:56:43;;;;;;;;;;;22.20;74.60;;;;;;5122932;28;19912;-49
2023/10/01 14:59:13;;;;;;;;;;;22.20;74.70;;;;;;5122556;28;19947;-49
2023/10/01 15:01:40;;;;;;;;;;;22.30;74.90;;;;;;5123099;28;19918;-49
2023/10/01 15:04:20;;;;;;;;;;;22.30;75.00;;;;;;5123189;28;20359;-48
2023/10/01 15:06:58;;;;;;;;;;;22.30;75.00;;;;;;5123230;28;20245;-48
2023/10/01 15:09:39;;;;;;;;;;;22.30;75.00;;;;;;5118595;28;19963;-47
2023/10/01 15:12:08;;;;;;;;;;;22.30;75.00;;;;;;5122804;28;19907;-47
2023/10/01 15:14:36;;;;;;;;;;;22.30;75.00;;;;;;5122954;28;19957;-48
2023/10/01 15:17:02;;;;;;;;;;;22.30;75.00;;;;;;5122777;28;19958;-47
2023/10/01 15:19:30;;;;;;;;;;;22.30;75.10;;;;;;5122796;28;19912;-50
2023/10/01 15:22:09;;;;;;;;;;;22.30;75.10;;;;;;5121968;28;19911;-49
2023/10/01 15:24:35;;;;;;;;;;;22.30;75.30;;;;;;5122710;28;19904;-48
2023/10/01 15:27:04;;;;;;;;;;;22.40;75.50;;;;;;5116795;28;20015;-48
2023/10/01 15:29:33;;;;;;;;;;;22.40;75.60;;;;;;5120562;28;20018;-47
2023/10/01 15:32:00;;;;;;;;;;;22.40;75.70;;;;;;5120875;28;19984;-47
2023/10/01 15:34:27;;;;;;;;;;;22.40;75.70;;;;;;5120206;28;19933;-49
2023/10/01 15:36:53;;;;;;;;;;;22.40;75.70;;;;;;5122099;28;19911;-48
2023/10/01 15:42:19;;;;;;;;;;;22.40;75.90;;;;;;5124612;28;19960;-47
2023/10/01 15:44:48;;;;;;;;;;;22.40;76.00;;;;;;5123471;27;19915;-46
2023/10/01 15:50:07;;;;;;;;;;;22.50;76.10;;;;;;5112695;28;19926;-47
2023/10/01 15:52:49;;;;;;;;;;;22.50;76.20;;;;;;5126278;28;19911;-49
2023/10/01 15:55:18;;;;;;;;;;;22.50;76.40;;;;;;5117744;28;19922;-50
2023/10/01 15:57:44;;;;;;;;;;;22.50;76.40;;;;;;5124090;28;19975;-50